Jackpot, Nevada
Current Conditions -  °F | °C
As of 4:00 AM on Friday 24 Oct 2014 (Local Time) from KTWF Reporting Station
Haze Haze  
Wind Chill: 50°   Ceiling: 10000
Heat Index: 50°   Visibility: 3mi
Dew Point: 40°   Wind: 0mph
Humidity: 68%   Direction: NA
Pressure: 30.11"   Gusts: NA
Location:  41.98°N, 114.68°W
Report Text: KTWF 241100Z AUTO 00000KT 3SM HZ OVC100 10/04 A3011 RMK AO2 T01000044
Loading
Personal Weather Stations






























Interactive Weather Map
Tropical Storm Tracking
New forecast layout! Learn more

10-Day Weather Forecast

Advertisements
Track Severe Weather on mobile